Time;durP1;ratioP1;P1;durP2;ratioP2;P2;SDS_P1;SDS_P2;PMS_P1;PMS_P2;Temp;Humidity;BMP_temperature;BMP_pressure;BME280_temperature;BME280_humidity;BME280_pressure;Samples;Min_cycle;Max_cycle;Signal;HPM_P1;HPM_P2
2024/03/06 00:01:56;;;;;;;;;;;23.30;40.40;;;;;;5052223;28;20308;-60
2024/03/06 00:04:23;;;;;;;;;;;23.30;40.40;;;;;;5056495;28;19925;-60
2024/03/06 00:06:52;;;;;;;;;;;23.30;40.50;;;;;;5056097;28;19925;-60
2024/03/06 00:09:19;;;;;;;;;;;23.30;40.50;;;;;;5056213;28;19932;-61
2024/03/06 00:11:46;;;;;;;;;;;23.30;40.50;;;;;;5056461;28;19925;-60
2024/03/06 00:14:13;;;;;;;;;;;23.30;40.50;;;;;;5056125;28;19925;-60
2024/03/06 00:16:40;;;;;;;;;;;23.30;40.40;;;;;;5055472;28;20020;-60
2024/03/06 00:19:07;;;;;;;;;;;23.30;40.40;;;;;;5055991;28;19924;-60
2024/03/06 00:21:36;;;;;;;;;;;23.30;40.30;;;;;;5055892;28;20443;-60
2024/03/06 00:24:03;;;;;;;;;;;23.30;40.30;;;;;;5055612;28;19924;-60
2024/03/06 00:26:30;;;;;;;;;;;23.30;40.30;;;;;;5056289;28;19924;-61
2024/03/06 00:28:57;;;;;;;;;;;23.30;40.30;;;;;;5054521;28;19982;-60
2024/03/06 00:31:24;;;;;;;;;;;23.30;40.30;;;;;;5056097;28;19978;-61
2024/03/06 00:33:51;;;;;;;;;;;23.30;40.30;;;;;;5055272;28;19955;-60
2024/03/06 00:36:18;;;;;;;;;;;23.30;40.30;;;;;;5055483;28;19932;-60
2024/03/06 00:38:45;;;;;;;;;;;23.30;40.20;;;;;;5055563;28;19969;-60
2024/03/06 00:41:12;;;;;;;;;;;23.30;40.20;;;;;;5055454;28;20011;-60
2024/03/06 00:43:39;;;;;;;;;;;23.30;40.20;;;;;;5055262;28;19979;-60
2024/03/06 00:46:06;;;;;;;;;;;23.30;40.20;;;;;;5055396;28;20386;-60
2024/03/06 00:48:33;;;;;;;;;;;23.30;40.20;;;;;;5055257;28;20439;-60
2024/03/06 00:51:00;;;;;;;;;;;23.30;40.20;;;;;;5036650;28;20373;-60
2024/03/06 00:53:27;;;;;;;;;;;23.30;40.20;;;;;;5055589;28;19925;-61
2024/03/06 00:55:54;;;;;;;;;;;23.30;40.30;;;;;;5055617;28;20321;-60
2024/03/06 00:58:21;;;;;;;;;;;23.30;40.30;;;;;;5054879;28;19968;-60
2024/03/06 01:00:48;;;;;;;;;;;23.30;40.30;;;;;;5055607;28;19955;-60
2024/03/06 01:03:14;;;;;;;;;;;23.30;40.30;;;;;;5055437;28;19924;-60
2024/03/06 01:05:42;;;;;;;;;;;23.30;40.30;;;;;;5055262;28;20024;-60
2024/03/06 01:08:08;;;;;;;;;;;23.20;40.30;;;;;;5054554;28;20345;-60
2024/03/06 01:10:36;;;;;;;;;;;23.20;40.30;;;;;;5054798;28;20027;-60
2024/03/06 01:13:02;;;;;;;;;;;23.20;40.40;;;;;;5054861;28;20256;-60
2024/03/06 01:15:29;;;;;;;;;;;23.10;40.40;;;;;;5054279;28;20285;-61
2024/03/06 01:17:57;;;;;;;;;;;23.10;40.50;;;;;;5054759;28;20340;-60
2024/03/06 01:20:24;;;;;;;;;;;23.10;40.50;;;;;;5054598;28;20359;-60
2024/03/06 01:22:51;;;;;;;;;;;23.10;40.50;;;;;;5053847;28;20436;-60
2024/03/06 01:25:18;;;;;;;;;;;23.10;40.50;;;;;;5054668;28;20437;-60
2024/03/06 01:27:45;;;;;;;;;;;23.10;40.50;;;;;;5054588;28;19975;-60
2024/03/06 01:30:12;;;;;;;;;;;23.10;40.50;;;;;;5053602;28;19925;-60
2024/03/06 01:32:39;;;;;;;;;;;23.10;40.40;;;;;;5054349;28;19932;-60
2024/03/06 01:35:06;;;;;;;;;;;23.10;40.40;;;;;;5054744;28;19925;-60
2024/03/06 01:37:33;;;;;;;;;;;23.10;40.40;;;;;;5054554;28;19925;-61
2024/03/06 01:40:04;;;;;;;;;;;23.10;40.40;;;;;;5053558;28;20304;-60
2024/03/06 01:42:31;;;;;;;;;;;23.10;40.40;;;;;;5054299;28;20390;-60
2024/03/06 01:44:58;;;;;;;;;;;23.10;40.40;;;;;;5054328;28;19929;-60
2024/03/06 01:47:25;;;;;;;;;;;23.10;40.30;;;;;;5054545;28;19925;-60
2024/03/06 01:49:51;;;;;;;;;;;23.10;40.30;;;;;;5053968;28;19925;-60
2024/03/06 01:52:20;;;;;;;;;;;23.10;40.40;;;;;;5054403;28;20368;-60
2024/03/06 01:54:47;;;;;;;;;;;23.10;40.40;;;;;;5053974;28;20370;-60
2024/03/06 01:57:15;;;;;;;;;;;23.20;40.40;;;;;;5053687;28;19925;-60
2024/03/06 01:59:42;;;;;;;;;;;23.10;40.40;;;;;;5053769;28;19972;-60
2024/03/06 02:02:11;;;;;;;;;;;23.10;40.40;;;;;;5053870;28;19928;-60
2024/03/06 02:04:38;;;;;;;;;;;23.10;40.40;;;;;;5054041;28;19925;-61
2024/03/06 02:07:08;;;;;;;;;;;23.10;40.40;;;;;;5054032;28;19924;-60
2024/03/06 02:09:35;;;;;;;;;;;23.10;40.40;;;;;;5053671;28;19955;-60
2024/03/06 02:12:03;;;;;;;;;;;23.10;40.40;;;;;;5053479;28;20008;-60
2024/03/06 02:14:29;;;;;;;;;;;23.10;40.40;;;;;;5053607;28;19929;-60
2024/03/06 02:16:56;;;;;;;;;;;23.10;40.40;;;;;;5053610;28;20245;-60
2024/03/06 02:19:23;;;;;;;;;;;23.10;40.40;;;;;;5053833;28;20286;-60
2024/03/06 02:21:50;;;;;;;;;;;23.10;40.50;;;;;;5053578;28;19928;-60
2024/03/06 02:24:17;;;;;;;;;;;23.00;40.50;;;;;;5053429;28;19974;-60
2024/03/06 02:26:44;;;;;;;;;;;23.00;40.60;;;;;;5053227;28;19925;-61
2024/03/06 02:29:11;;;;;;;;;;;23.00;40.60;;;;;;5052751;28;20470;-60
2024/03/06 02:31:39;;;;;;;;;;;23.00;40.60;;;;;;5053735;28;19924;-60
2024/03/06 02:34:06;;;;;;;;;;;23.00;40.70;;;;;;5053558;28;19929;-60
2024/03/06 02:36:33;;;;;;;;;;;23.00;40.70;;;;;;5053340;28;20382;-60
2024/03/06 02:39:00;;;;;;;;;;;22.90;40.70;;;;;;5053371;28;19960;-60
2024/03/06 02:41:27;;;;;;;;;;;22.90;40.70;;;;;;5053220;28;20007;-60
2024/03/06 02:43:54;;;;;;;;;;;22.90;40.60;;;;;;5053604;28;19932;-60
2024/03/06 02:46:21;;;;;;;;;;;22.90;40.60;;;;;;5052835;28;19971;-60
2024/03/06 02:48:48;;;;;;;;;;;22.90;40.60;;;;;;5053307;28;19964;-61
2024/03/06 02:51:18;;;;;;;;;;;23.00;40.70;;;;;;5053081;28;19932;-60
2024/03/06 02:53:44;;;;;;;;;;;23.00;40.60;;;;;;5053465;28;20301;-61
2024/03/06 02:56:18;;;;;;;;;;;23.00;40.60;;;;;;5053072;28;19925;-61
2024/03/06 02:58:45;;;;;;;;;;;23.00;40.60;;;;;;5051636;28;19925;-61
2024/03/06 03:01:13;;;;;;;;;;;23.00;40.60;;;;;;5053093;28;19925;-61
2024/03/06 03:03:41;;;;;;;;;;;23.00;40.60;;;;;;5052399;28;20382;-61
2024/03/06 03:06:08;;;;;;;;;;;23.00;40.50;;;;;;5053306;28;19925;-61
2024/03/06 03:08:36;;;;;;;;;;;23.00;40.50;;;;;;5052809;28;20015;-61
2024/03/06 03:11:03;;;;;;;;;;;23.00;40.50;;;;;;5053339;28;20012;-61
2024/03/06 03:13:30;;;;;;;;;;;23.00;40.50;;;;;;5035276;28;19929;-61
2024/03/06 03:15:58;;;;;;;;;;;22.90;40.50;;;;;;5053195;28;19925;-62
2024/03/06 03:18:25;;;;;;;;;;;23.00;40.60;;;;;;5052467;28;19932;-61
2024/03/06 03:20:52;;;;;;;;;;;23.00;40.60;;;;;;5051641;28;19925;-62
2024/03/06 03:23:21;;;;;;;;;;;22.90;40.50;;;;;;5052748;28;20016;-61
2024/03/06 03:25:49;;;;;;;;;;;22.90;40.60;;;;;;5052755;28;19932;-61
2024/03/06 03:28:18;;;;;;;;;;;23.00;40.60;;;;;;5051949;28;20374;-61
2024/03/06 03:30:45;;;;;;;;;;;22.90;40.60;;;;;;5052967;28;19960;-61
2024/03/06 03:33:12;;;;;;;;;;;22.90;40.60;;;;;;5052538;28;20404;-61
2024/03/06 03:35:39;;;;;;;;;;;22.90;40.60;;;;;;5052371;28;19925;-61
2024/03/06 03:38:06;;;;;;;;;;;22.80;40.60;;;;;;5054705;28;20393;-61
2024/03/06 03:40:33;;;;;;;;;;;22.80;40.70;;;;;;5056264;28;19925;-61
2024/03/06 03:43:05;;;;;;;;;;;22.90;40.80;;;;;;5056605;28;20455;-62
2024/03/06 03:45:33;;;;;;;;;;;22.80;40.70;;;;;;5056617;28;19931;-61
2024/03/06 03:48:02;;;;;;;;;;;22.80;40.80;;;;;;5056787;28;19974;-61
2024/03/06 03:50:29;;;;;;;;;;;22.80;40.70;;;;;;5056540;28;19925;-61
2024/03/06 03:52:57;;;;;;;;;;;22.80;40.70;;;;;;5055750;28;19928;-62
2024/03/06 03:55:24;;;;;;;;;;;22.80;40.70;;;;;;5056661;28;20289;-61
2024/03/06 03:57:52;;;;;;;;;;;22.80;40.70;;;;;;5056562;28;20263;-61
2024/03/06 04:00:19;;;;;;;;;;;22.80;40.70;;;;;;5056136;28;19983;-61
2024/03/06 04:02:46;;;;;;;;;;;22.80;40.70;;;;;;5055259;28;20035;-61
2024/03/06 04:05:13;;;;;;;;;;;22.80;40.70;;;;;;5056163;28;20036;-61
2024/03/06 04:07:40;;;;;;;;;;;22.90;40.70;;;;;;5055764;28;19955;-61
2024/03/06 04:10:10;;;;;;;;;;;22.90;40.70;;;;;;5055478;28;20451;-62
2024/03/06 04:12:38;;;;;;;;;;;22.90;40.70;;;;;;5056263;28;19971;-61
2024/03/06 04:15:05;;;;;;;;;;;22.80;40.60;;;;;;5056122;28;19979;-62
2024/03/06 04:17:32;;;;;;;;;;;22.80;40.60;;;;;;5055977;28;20386;-61
2024/03/06 04:19:59;;;;;;;;;;;22.80;40.60;;;;;;5055739;28;19929;-63
2024/03/06 04:22:26;;;;;;;;;;;22.80;40.70;;;;;;5055993;28;19967;-61
2024/03/06 04:24:55;;;;;;;;;;;22.80;40.70;;;;;;5055236;28;19925;-61
2024/03/06 04:27:21;;;;;;;;;;;22.80;40.70;;;;;;5056005;28;20020;-61
2024/03/06 04:29:48;;;;;;;;;;;22.70;40.70;;;;;;5055688;28;19931;-61
2024/03/06 04:32:15;;;;;;;;;;;22.80;40.70;;;;;;5055314;28;20290;-61
2024/03/06 04:34:42;;;;;;;;;;;22.80;40.70;;;;;;5052950;28;20011;-61
2024/03/06 04:37:09;;;;;;;;;;;22.70;40.70;;;;;;5055582;28;20278;-61
2024/03/06 04:39:36;;;;;;;;;;;22.80;40.50;;;;;;5055604;28;19925;-61
2024/03/06 04:42:03;;;;;;;;;;;22.80;40.20;;;;;;5054749;28;19964;-61
2024/03/06 04:44:32;;;;;;;;;;;22.80;40.00;;;;;;5055196;28;19932;-61
2024/03/06 04:46:59;;;;;;;;;;;22.80;39.80;;;;;;5055614;28;19971;-61
2024/03/06 04:49:26;;;;;;;;;;;22.80;39.60;;;;;;5053644;28;19924;-61
2024/03/06 04:51:53;;;;;;;;;;;22.80;39.50;;;;;;5055292;28;20015;-61
2024/03/06 04:54:20;;;;;;;;;;;22.80;39.50;;;;;;5055280;28;19925;-61
2024/03/06 04:56:47;;;;;;;;;;;22.80;39.50;;;;;;5055266;28;20555;-61
2024/03/06 04:59:14;;;;;;;;;;;22.80;39.60;;;;;;5054133;28;19972;-61
2024/03/06 05:01:43;;;;;;;;;;;22.80;39.50;;;;;;5055402;28;19928;-62
2024/03/06 05:04:11;;;;;;;;;;;22.80;39.50;;;;;;5054996;28;20272;-61
2024/03/06 05:06:55;;;;;;;;;;;22.80;39.20;;;;;;5054967;28;19975;-61
2024/03/06 05:09:41;;;;;;;;;;;22.70;39.20;;;;;;5054555;28;19920;-61
2024/03/06 05:12:25;;;;;;;;;;;22.80;39.10;;;;;;5054994;28;19928;-61
2024/03/06 05:15:10;;;;;;;;;;;22.80;39.00;;;;;;5054206;28;19982;-62
2024/03/06 05:17:55;;;;;;;;;;;22.80;39.10;;;;;;5054856;28;19935;-61
2024/03/06 05:20:40;;;;;;;;;;;22.80;38.80;;;;;;5054380;28;19919;-61
2024/03/06 05:23:24;;;;;;;;;;;22.80;38.70;;;;;;5054646;28;19962;-62
2024/03/06 05:26:09;;;;;;;;;;;22.80;38.70;;;;;;5053895;28;19963;-61
2024/03/06 05:28:53;;;;;;;;;;;22.80;38.60;;;;;;5054222;28;19919;-61
2024/03/06 05:31:37;;;;;;;;;;;22.80;38.50;;;;;;5053815;28;20017;-61
2024/03/06 05:34:22;;;;;;;;;;;22.80;38.50;;;;;;5050142;28;20336;-61
2024/03/06 05:37:06;;;;;;;;;;;22.80;38.30;;;;;;5036916;28;19962;-62
2024/03/06 05:39:50;;;;;;;;;;;22.80;38.30;;;;;;5052802;28;20012;-62
2024/03/06 05:42:35;;;;;;;;;;;22.80;38.30;;;;;;5049193;28;19919;-64
2024/03/06 05:45:19;;;;;;;;;;;22.90;38.30;;;;;;5041313;28;20321;-64
2024/03/06 05:48:03;;;;;;;;;;;22.90;38.20;;;;;;5053825;28;19920;-62
2024/03/06 05:50:47;;;;;;;;;;;22.80;38.60;;;;;;5043395;28;19928;-65
2024/03/06 05:53:35;;;;;;;;;;;22.90;38.10;;;;;;5054122;28;19968;-67
2024/03/06 05:56:20;;;;;;;;;;;22.90;38.00;;;;;;5054061;28;19928;-63
2024/03/06 05:59:07;;;;;;;;;;;22.90;37.90;;;;;;5049773;28;19951;-64
2024/03/06 06:01:34;;;;;;;;;;;22.90;37.90;;;;;;5053324;28;19925;-62
2024/03/06 06:04:02;;;;;;;;;;;22.90;38.00;;;;;;5053080;28;19928;-63
2024/03/06 06:06:33;;;;;;;;;;;22.90;38.00;;;;;;5053035;28;19925;-62
2024/03/06 06:09:00;;;;;;;;;;;22.80;37.90;;;;;;5053598;28;19929;-61
2024/03/06 06:11:27;;;;;;;;;;;22.80;37.90;;;;;;5053432;28;20390;-62
2024/03/06 06:13:54;;;;;;;;;;;22.80;37.80;;;;;;5053168;28;19932;-62
2024/03/06 06:16:21;;;;;;;;;;;22.80;37.80;;;;;;5051921;28;19925;-62
2024/03/06 06:18:48;;;;;;;;;;;22.80;37.80;;;;;;5050355;28;19929;-64
2024/03/06 06:21:16;;;;;;;;;;;22.90;37.70;;;;;;5028759;28;19932;-62
2024/03/06 06:23:42;;;;;;;;;;;22.90;37.70;;;;;;5042161;28;19944;-73
2024/03/06 06:26:12;;;;;;;;;;;23.00;38.00;;;;;;5039617;28;19944;-64
2024/03/06 06:28:40;;;;;;;;;;;23.00;38.30;;;;;;5039775;28;20025;-63
2024/03/06 06:31:07;;;;;;;;;;;23.00;38.40;;;;;;5045568;28;20055;-65
2024/03/06 06:33:34;;;;;;;;;;;23.00;38.50;;;;;;5039861;28;20205;-66
2024/03/06 06:36:01;;;;;;;;;;;23.00;38.50;;;;;;5041120;28;20016;-67
2024/03/06 06:38:28;;;;;;;;;;;23.10;38.60;;;;;;5044898;28;19932;-65
2024/03/06 06:40:55;;;;;;;;;;;23.10;38.60;;;;;;5041083;28;20382;-63
2024/03/06 06:43:22;;;;;;;;;;;23.10;38.70;;;;;;5041339;28;20565;-63
2024/03/06 06:45:50;;;;;;;;;;;23.10;38.70;;;;;;5037405;28;20000;-61
2024/03/06 06:48:20;;;;;;;;;;;23.20;38.40;;;;;;5044853;28;20362;-61
2024/03/06 06:50:47;;;;;;;;;;;23.20;38.90;;;;;;5041576;28;20104;-61
2024/03/06 06:53:14;;;;;;;;;;;23.20;38.20;;;;;;5041389;28;20497;-61
2024/03/06 06:55:41;;;;;;;;;;;23.30;38.20;;;;;;5043243;28;19929;-61
2024/03/06 06:58:08;;;;;;;;;;;23.30;38.10;;;;;;5043310;28;20361;-63
2024/03/06 07:00:37;;;;;;;;;;;23.40;37.90;;;;;;5042344;28;19984;-62
2024/03/06 07:03:04;;;;;;;;;;;23.30;38.20;;;;;;5037912;28;20410;-62
2024/03/06 07:05:31;;;;;;;;;;;23.40;37.60;;;;;;5044625;28;19995;-61
2024/03/06 07:07:58;;;;;;;;;;;23.40;38.30;;;;;;5042252;28;19960;-67
2024/03/06 07:10:26;;;;;;;;;;;23.40;37.90;;;;;;5039756;28;20392;-63
2024/03/06 07:12:53;;;;;;;;;;;23.40;38.10;;;;;;5042024;28;19943;-63
2024/03/06 07:15:20;;;;;;;;;;;23.50;38.30;;;;;;5042174;28;19929;-62
2024/03/06 07:17:47;;;;;;;;;;;23.60;38.40;;;;;;5031255;28;19998;-68
2024/03/06 07:20:14;;;;;;;;;;;23.60;38.50;;;;;;5043499;28;19932;-64
2024/03/06 07:22:42;;;;;;;;;;;23.60;38.60;;;;;;5040767;28;19933;-64
2024/03/06 07:25:09;;;;;;;;;;;23.70;38.60;;;;;;5042317;28;19929;-66
2024/03/06 07:27:36;;;;;;;;;;;23.70;38.70;;;;;;5041045;28;19925;-68
2024/03/06 07:30:03;;;;;;;;;;;23.70;38.90;;;;;;5041188;28;19968;-66
2024/03/06 07:32:30;;;;;;;;;;;23.80;39.10;;;;;;5025419;28;19932;-63
2024/03/06 07:34:58;;;;;;;;;;;23.90;39.00;;;;;;5046652;28;19967;-63
2024/03/06 07:37:25;;;;;;;;;;;24.00;38.90;;;;;;5040646;28;20305;-65
2024/03/06 07:39:52;;;;;;;;;;;24.00;38.70;;;;;;5048154;28;19964;-63
2024/03/06 07:42:21;;;;;;;;;;;24.10;38.60;;;;;;5042987;28;19925;-63
2024/03/06 07:44:48;;;;;;;;;;;24.10;38.50;;;;;;5035394;28;19932;-61
2024/03/06 07:47:15;;;;;;;;;;;24.10;38.30;;;;;;5045580;28;19956;-61
2024/03/06 07:49:44;;;;;;;;;;;24.20;38.20;;;;;;5046121;28;20374;-62
2024/03/06 07:52:11;;;;;;;;;;;24.20;38.10;;;;;;5046291;28;19928;-63
2024/03/06 07:54:39;;;;;;;;;;;24.20;38.10;;;;;;5046070;28;20573;-59
2024/03/06 07:57:06;;;;;;;;;;;24.20;37.90;;;;;;5040780;28;20392;-61
2024/03/06 07:59:33;;;;;;;;;;;24.30;37.90;;;;;;5045264;28;20283;-63
2024/03/06 08:02:00;;;;;;;;;;;24.30;37.80;;;;;;5044580;28;19932;-62
2024/03/06 08:04:28;;;;;;;;;;;24.30;37.70;;;;;;5046196;28;19925;-60
2024/03/06 08:06:54;;;;;;;;;;;24.40;37.80;;;;;;5042471;28;20020;-59
2024/03/06 08:09:23;;;;;;;;;;;24.40;37.80;;;;;;5046102;28;20024;-60
2024/03/06 08:11:50;;;;;;;;;;;24.40;38.20;;;;;;5043859;28;19994;-64
2024/03/06 08:14:17;;;;;;;;;;;24.40;37.60;;;;;;5043913;28;19937;-61
2024/03/06 08:16:44;;;;;;;;;;;24.40;37.60;;;;;;5041620;28;19929;-63
2024/03/06 08:19:11;;;;;;;;;;;24.50;37.60;;;;;;5046875;28;20015;-64
2024/03/06 08:21:38;;;;;;;;;;;24.50;37.50;;;;;;5042439;28;19946;-64
2024/03/06 08:24:05;;;;;;;;;;;24.50;37.40;;;;;;5044227;28;19933;-64
2024/03/06 08:26:32;;;;;;;;;;;24.60;37.30;;;;;;5044496;28;19993;-64
2024/03/06 08:28:59;;;;;;;;;;;24.60;37.30;;;;;;5044622;28;19925;-64
2024/03/06 08:31:26;;;;;;;;;;;24.60;37.20;;;;;;5043932;28;19978;-65
2024/03/06 08:33:54;;;;;;;;;;;24.60;37.70;;;;;;5039794;28;19995;-65
2024/03/06 08:36:21;;;;;;;;;;;24.60;37.00;;;;;;5045050;28;20546;-64
2024/03/06 08:38:48;;;;;;;;;;;24.60;36.80;;;;;;5038277;28;20049;-64
2024/03/06 08:41:15;;;;;;;;;;;24.70;36.80;;;;;;5041873;28;19928;-64
2024/03/06 08:43:42;;;;;;;;;;;24.70;36.70;;;;;;5048609;28;20909;-65
2024/03/06 08:46:09;;;;;;;;;;;24.70;36.60;;;;;;5045004;28;20031;-64
2024/03/06 08:48:36;;;;;;;;;;;24.70;36.60;;;;;;5037876;28;20390;-66
2024/03/06 08:51:05;;;;;;;;;;;24.70;36.60;;;;;;5038745;28;19932;-67
2024/03/06 08:53:32;;;;;;;;;;;24.70;36.70;;;;;;5044684;28;20379;-65
2024/03/06 08:55:59;;;;;;;;;;;24.70;36.70;;;;;;5041382;28;20228;-64
2024/03/06 08:58:26;;;;;;;;;;;24.70;36.60;;;;;;5042117;28;19925;-64
2024/03/06 09:00:53;;;;;;;;;;;24.70;36.50;;;;;;5037122;28;19929;-65
2024/03/06 09:03:20;;;;;;;;;;;24.80;36.50;;;;;;5043800;28;19980;-65
2024/03/06 09:05:47;;;;;;;;;;;24.80;36.50;;;;;;5046515;28;20010;-66
2024/03/06 09:08:14;;;;;;;;;;;24.80;36.50;;;;;;5042198;28;19940;-67
2024/03/06 09:10:41;;;;;;;;;;;24.90;36.50;;;;;;5045756;28;20314;-66
2024/03/06 09:13:08;;;;;;;;;;;24.90;36.40;;;;;;5046207;28;19931;-64
2024/03/06 09:15:35;;;;;;;;;;;24.90;36.40;;;;;;5043168;28;19939;-66
2024/03/06 09:18:03;;;;;;;;;;;24.90;36.40;;;;;;5046009;28;19924;-63
2024/03/06 09:20:31;;;;;;;;;;;24.90;36.30;;;;;;5044525;28;19955;-65
2024/03/06 09:23:00;;;;;;;;;;;25.00;36.20;;;;;;5044677;28;20290;-65
2024/03/06 09:25:28;;;;;;;;;;;25.00;36.20;;;;;;5047614;28;19964;-62
2024/03/06 09:27:56;;;;;;;;;;;25.00;36.00;;;;;;5047358;28;20016;-65
2024/03/06 09:30:23;;;;;;;;;;;25.10;36.00;;;;;;5047222;28;19933;-65
2024/03/06 09:32:51;;;;;;;;;;;25.10;36.00;;;;;;5044968;28;19925;-67
2024/03/06 09:35:18;;;;;;;;;;;25.10;35.80;;;;;;5043745;28;20268;-68
2024/03/06 09:37:46;;;;;;;;;;;25.10;35.80;;;;;;5045900;28;19924;-67
2024/03/06 09:40:20;;;;;;;;;;;25.10;35.70;;;;;;5044773;28;19925;-67
2024/03/06 09:42:49;;;;;;;;;;;25.10;35.60;;;;;;5047386;28;19974;-68
2024/03/06 09:45:16;;;;;;;;;;;25.10;36.00;;;;;;5047932;28;19929;-67
2024/03/06 09:47:44;;;;;;;;;;;25.10;35.30;;;;;;5039902;28;20091;-67
2024/03/06 09:50:15;;;;;;;;;;;25.10;35.20;;;;;;5041626;28;19925;-63
2024/03/06 09:52:46;;;;;;;;;;;25.10;35.20;;;;;;5045049;28;19935;-63
2024/03/06 09:55:15;;;;;;;;;;;25.10;35.10;;;;;;5042093;28;19939;-64
2024/03/06 09:57:41;;;;;;;;;;;25.20;35.20;;;;;;5028974;28;19963;-63
2024/03/06 10:00:12;;;;;;;;;;;25.20;35.10;;;;;;5042326;28;19928;-65
2024/03/06 10:02:46;;;;;;;;;;;25.20;35.10;;;;;;5045817;28;19939;-65
2024/03/06 10:05:23;;;;;;;;;;;25.30;34.80;;;;;;5041312;28;19976;-64
2024/03/06 10:07:51;;;;;;;;;;;25.20;34.70;;;;;;5046596;28;19932;-66
2024/03/06 10:10:19;;;;;;;;;;;25.30;34.70;;;;;;5048979;28;19929;-64
2024/03/06 10:12:47;;;;;;;;;;;25.30;34.70;;;;;;5044313;28;19999;-62
2024/03/06 10:15:14;;;;;;;;;;;25.30;34.70;;;;;;5041701;28;19982;-62
2024/03/06 10:17:41;;;;;;;;;;;25.30;34.80;;;;;;5042769;28;20016;-64
2024/03/06 10:20:22;;;;;;;;;;;25.20;34.70;;;;;;5042775;28;21653;-64
2024/03/06 10:22:51;;;;;;;;;;;25.20;34.80;;;;;;5043533;28;20394;-62
2024/03/06 10:25:24;;;;;;;;;;;25.30;34.90;;;;;;5039895;28;19936;-60
2024/03/06 10:28:05;;;;;;;;;;;25.20;34.90;;;;;;5045221;28;19929;-64
2024/03/06 10:30:35;;;;;;;;;;;25.30;35.00;;;;;;5041780;28;19928;-62
2024/03/06 10:33:03;;;;;;;;;;;25.30;35.00;;;;;;5045389;28;20040;-66
2024/03/06 10:35:30;;;;;;;;;;;25.30;35.10;;;;;;5043075;28;19928;-61
2024/03/06 10:38:00;;;;;;;;;;;25.30;35.10;;;;;;5045759;28;19929;-62
2024/03/06 10:40:29;;;;;;;;;;;25.30;35.10;;;;;;5042311;28;19925;-64
2024/03/06 10:42:56;;;;;;;;;;;25.40;35.20;;;;;;5046173;28;20283;-63
2024/03/06 10:45:24;;;;;;;;;;;25.30;35.00;;;;;;5045270;28;19968;-66
2024/03/06 10:47:51;;;;;;;;;;;25.40;35.30;;;;;;5043137;28;19961;-64
2024/03/06 10:50:19;;;;;;;;;;;25.40;35.10;;;;;;5037573;28;20015;-63
2024/03/06 10:52:47;;;;;;;;;;;25.40;35.00;;;;;;5037786;28;19932;-63
2024/03/06 10:55:15;;;;;;;;;;;25.40;34.90;;;;;;5044622;28;19925;-63
2024/03/06 10:57:42;;;;;;;;;;;25.40;34.80;;;;;;5041876;28;19987;-64
2024/03/06 11:00:10;;;;;;;;;;;25.40;34.80;;;;;;5039963;28;20225;-65
2024/03/06 11:02:37;;;;;;;;;;;25.50;34.90;;;;;;5027239;28;19924;-64
2024/03/06 11:05:05;;;;;;;;;;;25.50;34.70;;;;;;5041450;28;19972;-64
2024/03/06 11:07:32;;;;;;;;;;;25.50;34.70;;;;;;5039408;28;20289;-66
2024/03/06 11:10:02;;;;;;;;;;;25.50;34.70;;;;;;5044152;28;19945;-65
2024/03/06 11:12:33;;;;;;;;;;;25.50;34.80;;;;;;5047665;28;19931;-64
2024/03/06 11:15:03;;;;;;;;;;;25.50;34.80;;;;;;5045687;28;20015;-62
2024/03/06 11:17:30;;;;;;;;;;;25.50;34.80;;;;;;5024714;28;20570;-63
2024/03/06 11:20:12;;;;;;;;;;;25.60;34.70;;;;;;5045734;28;19947;-62
2024/03/06 11:22:59;;;;;;;;;;;25.60;34.60;;;;;;5045583;28;19929;-62
2024/03/06 11:25:59;;;;;;;;;;;25.60;34.40;;;;;;5049461;28;19924;-62
2024/03/06 11:28:27;;;;;;;;;;;25.60;34.30;;;;;;5052540;28;20271;-62
2024/03/06 11:30:59;;;;;;;;;;;25.60;34.20;;;;;;5050269;28;19932;-63
2024/03/06 11:33:37;;;;;;;;;;;25.70;34.20;;;;;;5048170;28;20293;-63
2024/03/06 11:36:23;;;;;;;;;;;25.70;34.10;;;;;;5047044;28;19935;-63
2024/03/06 11:38:55;;;;;;;;;;;25.70;34.10;;;;;;5045690;28;19925;-61
2024/03/06 11:41:24;;;;;;;;;;;25.70;33.50;;;;;;5041184;28;19931;-63
2024/03/06 11:43:53;;;;;;;;;;;25.70;32.80;;;;;;5040209;28;19960;-62
2024/03/06 11:46:20;;;;;;;;;;;25.60;32.50;;;;;;5041056;28;19929;-64
2024/03/06 11:48:58;;;;;;;;;;;25.40;32.50;;;;;;5042395;28;19925;-62
2024/03/06 11:51:26;;;;;;;;;;;25.30;33.20;;;;;;5039751;28;20019;-63
2024/03/06 11:53:53;;;;;;;;;;;25.30;33.60;;;;;;5045740;28;20473;-65
2024/03/06 11:56:21;;;;;;;;;;;25.30;33.90;;;;;;5049327;28;20422;-64
2024/03/06 11:58:48;;;;;;;;;;;25.40;34.30;;;;;;5048098;28;20290;-63
2024/03/06 12:01:18;;;;;;;;;;;25.40;34.40;;;;;;5047725;28;20102;-65
2024/03/06 12:03:46;;;;;;;;;;;25.40;34.40;;;;;;5046837;28;19937;-63
2024/03/06 12:06:16;;;;;;;;;;;25.40;34.50;;;;;;5044070;28;20460;-66
2024/03/06 12:08:43;;;;;;;;;;;25.40;34.50;;;;;;5044963;28;20046;-64
2024/03/06 12:11:10;;;;;;;;;;;25.50;34.50;;;;;;5049133;28;20351;-65
2024/03/06 12:13:37;;;;;;;;;;;25.50;34.50;;;;;;5005106;28;20289;-63
2024/03/06 12:16:08;;;;;;;;;;;25.50;34.30;;;;;;5043190;28;21359;-66
2024/03/06 12:18:35;;;;;;;;;;;25.60;34.50;;;;;;5046855;28;19929;-70
2024/03/06 12:21:02;;;;;;;;;;;25.60;34.40;;;;;;5035596;28;19932;-67
2024/03/06 12:23:30;;;;;;;;;;;25.70;34.70;;;;;;5037564;28;19929;-66
2024/03/06 12:26:04;;;;;;;;;;;25.70;34.80;;;;;;5047321;28;19924;-66
2024/03/06 12:28:32;;;;;;;;;;;25.70;34.80;;;;;;5042723;28;20015;-66
2024/03/06 12:31:01;;;;;;;;;;;25.70;34.80;;;;;;5036877;28;19935;-67
2024/03/06 12:33:28;;;;;;;;;;;25.70;34.70;;;;;;5049727;28;20386;-64
2024/03/06 12:36:03;;;;;;;;;;;25.70;34.60;;;;;;5046670;28;20039;-65
2024/03/06 12:38:30;;;;;;;;;;;25.80;34.60;;;;;;5049645;28;19952;-65
2024/03/06 12:40:58;;;;;;;;;;;25.80;34.60;;;;;;5047442;28;20308;-65
2024/03/06 12:43:25;;;;;;;;;;;25.80;34.60;;;;;;5043479;28;20003;-66
2024/03/06 12:45:57;;;;;;;;;;;25.80;34.60;;;;;;5046201;28;20006;-64
2024/03/06 12:48:25;;;;;;;;;;;25.80;34.50;;;;;;5042736;28;19933;-62
2024/03/06 12:50:54;;;;;;;;;;;25.90;34.50;;;;;;5038099;28;19968;-64
2024/03/06 12:53:21;;;;;;;;;;;25.90;34.40;;;;;;5037581;28;20378;-67
2024/03/06 12:55:48;;;;;;;;;;;25.80;33.90;;;;;;5035797;28;20015;-65
2024/03/06 12:58:16;;;;;;;;;;;25.90;33.70;;;;;;5047833;28;20090;-71
2024/03/06 13:00:43;;;;;;;;;;;25.90;33.70;;;;;;5045411;28;19932;-64
2024/03/06 13:03:10;;;;;;;;;;;25.90;33.70;;;;;;5048872;28;19924;-63
2024/03/06 13:05:37;;;;;;;;;;;25.90;33.80;;;;;;5048402;28;19972;-63
2024/03/06 13:08:04;;;;;;;;;;;25.90;33.80;;;;;;5044669;28;19925;-66
2024/03/06 13:10:31;;;;;;;;;;;25.90;33.80;;;;;;5042649;28;19935;-64
2024/03/06 13:12:58;;;;;;;;;;;25.90;33.60;;;;;;5043492;28;20368;-62
2024/03/06 13:15:25;;;;;;;;;;;25.90;33.60;;;;;;5046611;28;19929;-64
2024/03/06 13:17:52;;;;;;;;;;;25.90;33.50;;;;;;5044478;28;20650;-66
2024/03/06 13:20:19;;;;;;;;;;;25.80;33.20;;;;;;5047394;28;20023;-63
2024/03/06 13:22:46;;;;;;;;;;;25.90;33.20;;;;;;5049457;28;20027;-63
2024/03/06 13:25:13;;;;;;;;;;;25.80;33.30;;;;;;5047288;28;19929;-62
2024/03/06 13:27:40;;;;;;;;;;;25.90;33.40;;;;;;5045819;28;20028;-64
2024/03/06 13:30:07;;;;;;;;;;;25.90;33.40;;;;;;5045275;28;19929;-65
2024/03/06 13:32:35;;;;;;;;;;;25.90;33.30;;;;;;5047649;28;19971;-63
2024/03/06 13:35:02;;;;;;;;;;;25.80;31.30;;;;;;5045370;28;19987;-63
2024/03/06 13:37:29;;;;;;;;;;;25.70;30.30;;;;;;5043800;28;20023;-62
2024/03/06 13:40:00;;;;;;;;;;;25.40;30.20;;;;;;5040377;28;20015;-63
2024/03/06 13:42:27;;;;;;;;;;;25.20;30.60;;;;;;5047124;28;19931;-63
2024/03/06 13:44:55;;;;;;;;;;;24.90;31.10;;;;;;5045044;28;19940;-62
2024/03/06 13:47:23;;;;;;;;;;;24.70;31.00;;;;;;5041126;28;19932;-65
2024/03/06 13:49:50;;;;;;;;;;;24.50;31.20;;;;;;5046870;28;19998;-65
2024/03/06 13:52:20;;;;;;;;;;;24.30;32.00;;;;;;5044705;28;20366;-64
2024/03/06 13:54:50;;;;;;;;;;;24.20;31.90;;;;;;5048042;28;19925;-64
2024/03/06 13:57:17;;;;;;;;;;;24.10;33.00;;;;;;5045453;28;20389;-65
2024/03/06 13:59:44;;;;;;;;;;;24.00;33.80;;;;;;5044704;28;20401;-68
2024/03/06 14:02:11;;;;;;;;;;;24.10;34.90;;;;;;5046126;28;19933;-65
2024/03/06 14:04:38;;;;;;;;;;;24.10;34.60;;;;;;5044954;28;19924;-64
2024/03/06 14:07:05;;;;;;;;;;;24.20;34.80;;;;;;5048619;28;19986;-66
2024/03/06 14:09:31;;;;;;;;;;;24.30;35.00;;;;;;5046950;28;19925;-68
2024/03/06 14:11:58;;;;;;;;;;;24.40;35.30;;;;;;5045202;28;19934;-64
2024/03/06 14:14:26;;;;;;;;;;;24.50;35.20;;;;;;5041650;28;20513;-63
2024/03/06 14:16:53;;;;;;;;;;;24.50;35.10;;;;;;5044531;28;20048;-71
2024/03/06 14:19:21;;;;;;;;;;;24.60;35.00;;;;;;5044326;28;19924;-61
2024/03/06 14:21:48;;;;;;;;;;;24.70;34.90;;;;;;5045364;28;19974;-66
2024/03/06 14:24:15;;;;;;;;;;;24.70;34.80;;;;;;5045947;28;20015;-65
2024/03/06 14:26:42;;;;;;;;;;;24.80;34.70;;;;;;5046597;28;19982;-68